Time;durP1;ratioP1;P1;durP2;ratioP2;P2;SDS_P1;SDS_P2;PMS_P1;PMS_P2;Temp;Humidity;BMP_temperature;BMP_pressure;BME280_temperature;BME280_humidity;BME280_pressure;Samples;Min_cycle;Max_cycle;Signal;HPM_P1;HPM_P2
2021/11/06 00:01:27;;;;;;;2.80;1.35;;;;;14.80;102559.00;;;;5029745;28;20281;-81
2021/11/06 00:03:56;;;;;;;2.47;1.35;;;;;14.80;102556.00;;;;5041362;28;20292;-81
2021/11/06 00:06:23;;;;;;;1.85;1.17;;;;;14.80;102558.00;;;;5049715;28;20314;-81
2021/11/06 00:08:50;;;;;;;1.60;0.98;;;;;14.80;102557.00;;;;5049695;28;20204;-81
2021/11/06 00:11:17;;;;;;;3.30;1.20;;;;;14.80;102555.00;;;;5049183;28;20284;-81
2021/11/06 00:13:45;;;;;;;2.20;0.98;;;;;14.80;102553.00;;;;5049251;28;20220;-81
2021/11/06 00:16:12;;;;;;;2.95;1.70;;;;;14.80;102554.00;;;;5048897;28;20211;-81
2021/11/06 00:18:39;;;;;;;1.95;1.50;;;;;14.80;102542.00;;;;5034769;28;20227;-81
2021/11/06 00:21:08;;;;;;;3.45;1.63;;;;;14.80;102549.00;;;;5029177;28;20204;-81
2021/11/06 00:23:35;;;;;;;1.92;1.45;;;;;14.80;102554.00;;;;5029027;28;20211;-81
2021/11/06 00:26:02;;;;;;;2.60;1.55;;;;;14.80;102552.00;;;;5031152;28;20200;-81
2021/11/06 00:28:29;;;;;;;3.17;1.70;;;;;14.80;102546.00;;;;5048208;28;20215;-81
2021/11/06 00:30:56;;;;;;;2.05;1.60;;;;;14.70;102552.00;;;;5049145;28;20210;-80
2021/11/06 00:33:24;;;;;;;1.98;1.35;;;;;14.70;102556.00;;;;5048995;28;20618;-81
2021/11/06 00:35:51;;;;;;;4.22;1.70;;;;;14.70;102551.00;;;;5033159;28;20212;-81
2021/11/06 00:38:19;;;;;;;1.80;1.40;;;;;14.70;102557.00;;;;5028111;28;20232;-81
2021/11/06 00:40:47;;;;;;;2.88;1.75;;;;;14.70;102558.00;;;;5028226;28;20211;-81
2021/11/06 00:43:14;;;;;;;2.10;1.50;;;;;14.70;102557.00;;;;5028087;28;20987;-82
2021/11/06 00:45:43;;;;;;;2.97;2.10;;;;;14.80;102545.00;;;;5036379;28;20203;-81
2021/11/06 00:48:10;;;;;;;3.38;1.70;;;;;14.70;102548.00;;;;5048230;28;20203;-81
2021/11/06 00:50:38;;;;;;;2.13;1.75;;;;;14.70;102553.00;;;;5047441;28;20231;-82
2021/11/06 00:53:05;;;;;;;7.45;2.30;;;;;14.70;102553.00;;;;5031321;28;20228;-81
2021/11/06 00:55:34;;;;;;;5.22;2.28;;;;;14.70;102567.00;;;;5039560;28;20215;-81
2021/11/06 00:58:01;;;;;;;3.05;2.28;;;;;14.70;102563.00;;;;5028346;28;20227;-81
2021/11/06 01:00:28;;;;;;;3.63;2.58;;;;;14.70;102568.00;;;;5028775;28;20200;-81
2021/11/06 01:02:56;;;;;;;2.72;2.05;;;;;14.70;102565.00;;;;5028787;28;20203;-81
2021/11/06 01:05:23;;;;;;;4.57;2.47;;;;;14.70;102558.00;;;;5028095;28;20226;-81
2021/11/06 01:07:50;;;;;;;2.30;2.10;;;;;14.70;102566.00;;;;5028703;28;20204;-82
2021/11/06 01:10:19;;;;;;;3.67;2.25;;;;;14.70;102557.00;;;;5028284;28;20644;-82
2021/11/06 01:12:47;;;;;;;2.75;2.30;;;;;14.70;102559.00;;;;5029009;28;20192;-81
2021/11/06 01:15:15;;;;;;;2.42;2.20;;;;;14.70;102555.00;;;;5027464;28;20200;-81
2021/11/06 01:17:43;;;;;;;4.13;2.53;;;;;14.70;102553.00;;;;5028639;28;20228;-81
2021/11/06 01:20:10;;;;;;;3.85;2.28;;;;;14.70;102553.00;;;;5027964;28;20661;-81
2021/11/06 01:22:38;;;;;;;5.72;2.72;;;;;14.70;102549.00;;;;5028181;28;20201;-81
2021/11/06 01:25:07;;;;;;;2.75;2.17;;;;;14.70;102549.00;;;;5027858;28;20207;-81
2021/11/06 01:27:35;;;;;;;3.15;2.17;;;;;14.70;102553.00;;;;5042688;28;20203;-81
2021/11/06 01:30:05;;;;;;;4.60;2.45;;;;;14.60;102550.00;;;;5047554;28;20704;-81
2021/11/06 01:32:32;;;;;;;4.90;2.58;;;;;14.70;102546.00;;;;5047449;28;20211;-81
2021/11/06 01:35:00;;;;;;;5.50;2.60;;;;;14.70;102541.00;;;;5047681;28;20328;-81
2021/11/06 01:37:28;;;;;;;4.20;2.55;;;;;14.70;102545.00;;;;5048411;28;20230;-81
2021/11/06 01:39:55;;;;;;;5.85;2.63;;;;;14.60;102550.00;;;;5047699;28;20219;-81
2021/11/06 01:42:23;;;;;;;3.05;2.38;;;;;14.70;102552.00;;;;5043662;28;20208;-81
2021/11/06 01:44:50;;;;;;;3.50;2.13;;;;;14.70;102541.00;;;;5028224;28;20269;-82
2021/11/06 01:47:19;;;;;;;4.68;3.05;;;;;14.60;102537.00;;;;5027159;28;20499;-81
2021/11/06 01:49:46;;;;;;;4.05;2.85;;;;;14.60;102535.00;;;;5027554;28;20228;-82
2021/11/06 01:52:14;;;;;;;5.60;3.05;;;;;14.60;102530.00;;;;5028085;28;20227;-81
2021/11/06 01:54:41;;;;;;;4.82;2.50;;;;;14.60;102532.00;;;;5031918;28;20200;-82
2021/11/06 01:57:08;;;;;;;4.80;2.63;;;;;14.60;102526.00;;;;5031501;28;20216;-82
2021/11/06 01:59:36;;;;;;;3.78;2.42;;;;;14.60;102526.00;;;;5031998;28;20220;-81
2021/11/06 02:02:04;;;;;;;4.90;3.00;;;;;14.60;102514.00;;;;5030893;28;20678;-81
2021/11/06 02:04:32;;;;;;;5.97;2.83;;;;;14.60;102527.00;;;;5032593;28;20612;-81
2021/11/06 02:07:00;;;;;;;4.22;2.97;;;;;14.60;102527.00;;;;5043256;28;20192;-82
2021/11/06 02:09:27;;;;;;;4.25;2.72;;;;;14.60;102525.00;;;;5032265;28;20223;-81
2021/11/06 02:11:55;;;;;;;6.55;2.70;;;;;14.60;102531.00;;;;5031310;28;20212;-81
2021/11/06 02:14:22;;;;;;;4.43;2.55;;;;;14.60;102529.00;;;;5031216;28;20665;-82
2021/11/06 02:16:51;;;;;;;7.75;3.28;;;;;14.60;102542.00;;;;5032407;28;20700;-81
2021/11/06 02:19:19;;;;;;;5.30;2.28;;;;;14.60;102535.00;;;;5031231;28;20744;-82
2021/11/06 02:21:48;;;;;;;3.30;2.42;;;;;14.50;102536.00;;;;5031640;28;20196;-81
2021/11/06 02:24:15;;;;;;;2.58;2.38;;;;;14.60;102533.00;;;;5031300;28;20204;-81
2021/11/06 02:26:42;;;;;;;4.90;2.90;;;;;14.60;102533.00;;;;5046319;28;20208;-81
2021/11/06 02:29:10;;;;;;;4.35;2.17;;;;;14.60;102531.00;;;;5050751;28;20210;-81
2021/11/06 02:31:37;;;;;;;4.25;2.83;;;;;14.50;102534.00;;;;5051039;28;20199;-81
2021/11/06 02:34:04;;;;;;;2.88;2.22;;;;;14.50;102532.00;;;;5041517;28;20212;-81
2021/11/06 02:36:32;;;;;;;3.92;2.58;;;;;14.50;102545.00;;;;5031503;28;20201;-81
2021/11/06 02:39:00;;;;;;;4.55;2.45;;;;;14.50;102541.00;;;;5031324;28;20228;-81
2021/11/06 02:41:29;;;;;;;3.50;2.78;;;;;14.50;102541.00;;;;5031160;28;20266;-81
2021/11/06 02:43:57;;;;;;;4.03;2.88;;;;;14.50;102545.00;;;;5031782;28;20318;-81
2021/11/06 02:46:24;;;;;;;4.80;3.35;;;;;14.50;102540.00;;;;5042859;28;20203;-81
2021/11/06 02:48:51;;;;;;;3.88;2.75;;;;;14.50;102538.00;;;;5051853;28;20198;-81
2021/11/06 02:51:18;;;;;;;4.78;3.17;;;;;14.50;102537.00;;;;5039049;28;20620;-81
2021/11/06 02:53:46;;;;;;;3.22;2.42;;;;;14.50;102543.00;;;;5031832;28;20291;-82
2021/11/06 02:56:14;;;;;;;4.53;2.42;;;;;14.50;102539.00;;;;5031088;28;20212;-81
2021/11/06 02:58:42;;;;;;;3.58;2.70;;;;;14.50;102535.00;;;;5031033;28;20224;-81
2021/11/06 03:01:09;;;;;;;3.88;3.00;;;;;14.50;102535.00;;;;5030791;28;20216;-81
2021/11/06 03:03:36;;;;;;;4.28;2.92;;;;;14.50;102535.00;;;;5044183;28;20204;-81
2021/11/06 03:06:03;;;;;;;2.55;2.25;;;;;14.50;102528.00;;;;5050501;28;20207;-81
2021/11/06 03:08:31;;;;;;;4.10;2.92;;;;;14.50;102533.00;;;;5038665;28;20214;-81
2021/11/06 03:10:58;;;;;;;3.55;2.53;;;;;14.50;102530.00;;;;5030795;28;20200;-81
2021/11/06 03:13:26;;;;;;;5.00;2.90;;;;;14.40;102533.00;;;;5031211;28;20224;-81
2021/11/06 03:15:54;;;;;;;3.25;2.60;;;;;14.40;102531.00;;;;5034689;28;21501;-81
2021/11/06 03:18:21;;;;;;;2.97;2.65;;;;;14.50;102520.00;;;;5038701;28;20293;-82
2021/11/06 03:20:48;;;;;;;6.13;2.97;;;;;14.50;102521.00;;;;5030868;28;20201;-81
2021/11/06 03:23:16;;;;;;;4.88;3.03;;;;;14.40;102512.00;;;;5030418;28;20666;-81
2021/11/06 03:25:43;;;;;;;5.40;3.08;;;;;14.40;102512.00;;;;5031539;28;20200;-81
2021/11/06 03:28:10;;;;;;;3.75;2.95;;;;;14.40;102513.00;;;;5030105;28;20670;-81
2021/11/06 03:30:39;;;;;;;5.47;3.65;;;;;14.40;102512.00;;;;5031240;28;20204;-81
2021/11/06 03:33:06;;;;;;;2.90;2.63;;;;;14.40;102515.00;;;;5030370;28;20677;-81
2021/11/06 03:35:34;;;;;;;4.03;3.22;;;;;14.40;102513.00;;;;5030682;28;20200;-81
2021/11/06 03:38:01;;;;;;;5.20;3.90;;;;;14.40;102518.00;;;;5030545;28;20228;-81
2021/11/06 03:40:28;;;;;;;4.75;3.05;;;;;14.40;102514.00;;;;5030478;28;20231;-81
2021/11/06 03:42:56;;;;;;;4.25;3.17;;;;;14.40;102514.00;;;;5046964;28;20611;-81
2021/11/06 03:45:23;;;;;;;4.50;3.40;;;;;14.40;102508.00;;;;5046892;28;20206;-81
2021/11/06 03:47:52;;;;;;;6.05;3.20;;;;;14.30;102506.00;;;;5030715;28;20216;-81
2021/11/06 03:50:19;;;;;;;6.45;4.07;;;;;14.40;102508.00;;;;5029563;28;20243;-81
2021/11/06 03:52:47;;;;;;;4.93;3.50;;;;;14.30;102511.00;;;;5030926;28;20211;-81
2021/11/06 03:55:15;;;;;;;6.25;4.20;;;;;14.30;102501.00;;;;5030070;28;20197;-82
2021/11/06 03:57:42;;;;;;;6.28;3.60;;;;;14.30;102514.00;;;;5030235;28;20637;-82
2021/11/06 04:00:12;;;;;;;5.43;3.35;;;;;14.30;102510.00;;;;5047794;28;20250;-82
2021/11/06 04:02:40;;;;;;;7.32;3.90;;;;;14.30;102511.00;;;;5050335;28;20196;-81
2021/11/06 04:05:10;;;;;;;6.80;4.57;;;;;14.30;102506.00;;;;5049776;28;20203;-81
2021/11/06 04:07:37;;;;;;;5.82;3.70;;;;;14.30;102514.00;;;;5050084;28;20250;-81
2021/11/06 04:10:06;;;;;;;11.63;5.00;;;;;14.30;102513.00;;;;5049612;28;20195;-82
2021/11/06 04:12:34;;;;;;;9.48;4.85;;;;;14.30;102520.00;;;;5049919;28;20196;-81
2021/11/06 04:15:01;;;;;;;8.68;4.32;;;;;14.20;102515.00;;;;5048296;28;20211;-82
2021/11/06 04:17:28;;;;;;;7.95;4.78;;;;;14.20;102519.00;;;;5029532;28;20189;-81
2021/11/06 04:19:55;;;;;;;9.10;4.53;;;;;14.20;102517.00;;;;5029369;28;20223;-81
2021/11/06 04:22:24;;;;;;;8.85;5.38;;;;;14.20;102511.00;;;;5029801;28;20203;-81
2021/11/06 04:24:51;;;;;;;9.70;4.18;;;;;14.20;102504.00;;;;5029728;28;20200;-81
2021/11/06 04:27:19;;;;;;;8.18;5.00;;;;;14.20;102513.00;;;;5031616;28;20633;-81
2021/11/06 04:29:46;;;;;;;7.18;4.60;;;;;14.20;102514.00;;;;5038993;28;20203;-81
2021/11/06 04:32:13;;;;;;;8.60;4.93;;;;;14.20;102515.00;;;;5029883;28;20700;-81
2021/11/06 04:34:40;;;;;;;9.55;5.30;;;;;14.20;102514.00;;;;5030365;28;20204;-81
2021/11/06 04:37:08;;;;;;;8.52;5.00;;;;;14.10;102515.00;;;;5028445;28;20638;-81
2021/11/06 04:39:36;;;;;;;10.30;5.40;;;;;14.10;102512.00;;;;5029881;28;20224;-81
2021/11/06 04:42:04;;;;;;;9.15;4.70;;;;;14.10;102508.00;;;;5028692;28;20666;-81
2021/11/06 04:44:31;;;;;;;8.40;4.95;;;;;14.10;102507.00;;;;5029566;28;20200;-81
2021/11/06 04:46:59;;;;;;;10.18;5.47;;;;;14.10;102500.00;;;;5043734;28;20701;-81
2021/11/06 04:49:26;;;;;;;7.30;4.85;;;;;14.10;102493.00;;;;5044949;28;20211;-81
2021/11/06 04:51:53;;;;;;;10.55;5.10;;;;;14.10;102502.00;;;;5029126;28;20208;-81
2021/11/06 04:54:21;;;;;;;7.90;4.47;;;;;14.10;102492.00;;;;5028397;28;20207;-81
2021/11/06 04:56:50;;;;;;;12.77;5.50;;;;;14.10;102498.00;;;;5029178;28;20210;-81
2021/11/06 04:59:17;;;;;;;8.90;5.20;;;;;14.10;102498.00;;;;5029006;28;20483;-81
2021/11/06 05:01:45;;;;;;;7.65;4.68;;;;;14.10;102494.00;;;;5029596;28;20628;-81
2021/11/06 05:04:12;;;;;;;8.52;5.43;;;;;14.10;102495.00;;;;5028357;28;20227;-81
2021/11/06 05:06:39;;;;;;;8.38;4.35;;;;;14.10;102491.00;;;;5034881;28;20202;-82
2021/11/06 05:09:06;;;;;;;10.13;5.43;;;;;14.10;102496.00;;;;5048525;28;20204;-82
2021/11/06 05:11:34;;;;;;;12.63;6.28;;;;;14.10;102499.00;;;;5049038;28;20204;-81
2021/11/06 05:14:02;;;;;;;12.25;5.97;;;;;14.00;102500.00;;;;5048852;28;20223;-81
2021/11/06 05:16:32;;;;;;;9.02;5.47;;;;;14.00;102504.00;;;;5048283;28;20207;-81
2021/11/06 05:18:59;;;;;;;11.02;5.70;;;;;14.00;102494.00;;;;5048660;28;20227;-81
2021/11/06 05:21:28;;;;;;;9.57;5.30;;;;;14.00;102484.00;;;;5049060;28;20205;-81
2021/11/06 05:23:55;;;;;;;9.88;5.63;;;;;14.00;102489.00;;;;5040415;28;20212;-81
2021/11/06 05:26:22;;;;;;;10.07;5.45;;;;;14.00;102491.00;;;;5028251;28;20208;-81
2021/11/06 05:28:50;;;;;;;12.45;6.15;;;;;14.00;102486.00;;;;5028118;28;20208;-81
2021/11/06 05:31:18;;;;;;;7.97;5.03;;;;;14.00;102486.00;;;;5028544;28;20204;-81
2021/11/06 05:33:46;;;;;;;7.80;4.25;;;;;14.00;102492.00;;;;5028493;28;20208;-81
2021/11/06 05:36:13;;;;;;;13.07;6.05;;;;;14.00;102492.00;;;;5029682;28;20204;-81
2021/11/06 05:38:40;;;;;;;8.65;5.07;;;;;14.00;102496.00;;;;5039263;28;20362;-81
2021/11/06 05:41:07;;;;;;;11.30;5.97;;;;;14.00;102497.00;;;;5028783;28;20199;-81
2021/11/06 05:43:35;;;;;;;11.60;6.03;;;;;14.00;102490.00;;;;5028840;28;20196;-81
2021/11/06 05:46:02;;;;;;;13.02;5.63;;;;;14.00;102497.00;;;;5028635;28;20200;-81
2021/11/06 05:48:31;;;;;;;10.00;6.03;;;;;14.00;102494.00;;;;5028739;28;20611;-81
2021/11/06 05:50:58;;;;;;;12.10;5.80;;;;;14.00;102491.00;;;;5028555;28;20228;-81
2021/11/06 05:53:25;;;;;;;12.77;6.13;;;;;14.00;102482.00;;;;5028329;28;20207;-81
2021/11/06 05:55:52;;;;;;;12.52;6.35;;;;;14.00;102482.00;;;;5028405;28;20200;-81
2021/11/06 05:58:19;;;;;;;9.50;5.90;;;;;14.00;102486.00;;;;5040222;28;20206;-81
2021/11/06 06:00:47;;;;;;;8.93;5.55;;;;;14.00;102492.00;;;;5048651;28;20204;-81
2021/11/06 06:03:14;;;;;;;8.27;5.50;;;;;14.10;102493.00;;;;5047931;28;20203;-81
2021/11/06 06:05:43;;;;;;;11.45;6.00;;;;;14.00;102491.00;;;;5048132;28;20557;-81
2021/11/06 06:08:11;;;;;;;9.73;5.22;;;;;14.10;102493.00;;;;5047910;28;20222;-81
2021/11/06 06:10:39;;;;;;;8.90;5.68;;;;;14.10;102502.00;;;;5048247;28;20195;-82
2021/11/06 06:13:06;;;;;;;6.82;5.07;;;;;14.10;102510.00;;;;5047298;28;20203;-81
2021/11/06 06:15:34;;;;;;;8.38;5.75;;;;;14.20;102502.00;;;;5034780;28;20201;-81
2021/11/06 06:18:01;;;;;;;9.35;5.80;;;;;14.20;102495.00;;;;5027804;28;20212;-81
2021/11/06 06:20:28;;;;;;;8.55;5.40;;;;;14.20;102497.00;;;;5028081;28;20235;-82
2021/11/06 06:22:57;;;;;;;9.18;5.85;;;;;14.20;102499.00;;;;5036859;28;20210;-81
2021/11/06 06:25:24;;;;;;;10.75;5.97;;;;;14.20;102499.00;;;;5046861;28;20556;-82
2021/11/06 06:27:52;;;;;;;11.05;6.15;;;;;14.20;102492.00;;;;5047827;28;20223;-82
2021/11/06 06:30:21;;;;;;;9.30;5.78;;;;;14.20;102489.00;;;;5047252;28;20207;-82
2021/11/06 06:32:48;;;;;;;11.30;5.65;;;;;14.20;102493.00;;;;5032010;28;20209;-82
2021/11/06 06:35:16;;;;;;;8.90;5.97;;;;;14.20;102504.00;;;;5026736;28;20213;-82
2021/11/06 06:37:44;;;;;;;11.05;6.25;;;;;14.30;102493.00;;;;5027561;28;20215;-82
2021/11/06 06:40:13;;;;;;;10.10;6.40;;;;;14.30;102495.00;;;;5030713;28;20231;-81
2021/11/06 06:42:41;;;;;;;9.45;6.05;;;;;14.30;102494.00;;;;5033458;28;20201;-82
2021/11/06 06:45:09;;;;;;;9.60;6.00;;;;;14.30;102498.00;;;;5050466;28;20210;-81
2021/11/06 06:47:36;;;;;;;8.93;5.88;;;;;14.30;102490.00;;;;5050360;28;20215;-81
2021/11/06 06:50:04;;;;;;;8.57;5.80;;;;;14.30;102489.00;;;;5032678;28;20240;-81
2021/11/06 06:52:31;;;;;;;8.27;5.85;;;;;14.30;102484.00;;;;5030833;28;20705;-81
2021/11/06 06:54:58;;;;;;;8.23;5.22;;;;;14.40;102493.00;;;;5031842;28;20207;-82
2021/11/06 06:57:27;;;;;;;8.65;5.32;;;;;14.40;102494.00;;;;5031690;28;20208;-81
2021/11/06 06:59:54;;;;;;;12.15;6.50;;;;;14.40;102499.00;;;;5031423;28;20235;-82
2021/11/06 07:02:21;;;;;;;12.18;6.32;;;;;14.40;102498.00;;;;5030350;28;20209;-82
2021/11/06 07:04:49;;;;;;;11.90;6.22;;;;;14.40;102500.00;;;;5031699;28;20290;-81
2021/11/06 07:07:16;;;;;;;9.02;5.38;;;;;14.40;102496.00;;;;5030997;28;20196;-81
2021/11/06 07:09:43;;;;;;;14.10;5.97;;;;;14.40;102499.00;;;;5031423;28;20436;-81
2021/11/06 07:12:11;;;;;;;10.93;5.47;;;;;14.40;102499.00;;;;5030784;28;20189;-82
2021/11/06 07:14:39;;;;;;;10.10;6.18;;;;;14.40;102493.00;;;;5031434;28;20216;-82
2021/11/06 07:17:07;;;;;;;13.80;6.60;;;;;14.40;102492.00;;;;5029995;28;20584;-83
2021/11/06 07:19:34;;;;;;;9.15;5.78;;;;;14.50;102496.00;;;;5031394;28;20224;-82
2021/11/06 07:22:01;;;;;;;9.38;6.30;;;;;14.50;102498.00;;;;5031556;28;20359;-81
2021/11/06 07:24:29;;;;;;;11.77;6.78;;;;;14.50;102497.00;;;;5030304;28;20291;-82
2021/11/06 07:26:56;;;;;;;10.93;5.65;;;;;14.50;102501.00;;;;5030233;28;20662;-81
2021/11/06 07:29:23;;;;;;;11.82;6.30;;;;;14.50;102506.00;;;;5030859;28;20204;-81
2021/11/06 07:31:52;;;;;;;10.18;5.28;;;;;14.50;102507.00;;;;5030553;28;20654;-81
2021/11/06 07:34:19;;;;;;;11.85;5.90;;;;;14.50;102503.00;;;;5029348;28;20200;-81
2021/11/06 07:36:47;;;;;;;9.95;5.38;;;;;14.50;102505.00;;;;5030517;28;20207;-82
2021/11/06 07:39:14;;;;;;;9.80;5.95;;;;;14.50;102510.00;;;;5030436;28;20242;-82
2021/11/06 07:41:41;;;;;;;10.40;5.38;;;;;14.50;102507.00;;;;5029670;28;20213;-82
2021/11/06 07:44:09;;;;;;;10.07;6.15;;;;;14.60;102508.00;;;;5029348;28;20667;-81
2021/11/06 07:46:36;;;;;;;9.65;6.07;;;;;14.60;102518.00;;;;5030468;28;20212;-81
2021/11/06 07:49:05;;;;;;;10.30;5.93;;;;;14.60;102513.00;;;;5030146;28;20215;-82
2021/11/06 07:51:33;;;;;;;10.68;6.15;;;;;14.60;102513.00;;;;5028984;28;20656;-82
2021/11/06 07:54:00;;;;;;;8.77;5.53;;;;;14.60;102512.00;;;;5036109;28;20203;-82
2021/11/06 07:56:28;;;;;;;9.65;5.57;;;;;14.70;102506.00;;;;5035155;28;20208;-82
2021/11/06 07:58:57;;;;;;;10.57;5.82;;;;;14.70;102508.00;;;;5030029;28;20207;-82
2021/11/06 08:01:25;;;;;;;10.32;5.82;;;;;14.70;102504.00;;;;5029524;28;20209;-82
2021/11/06 08:03:52;;;;;;;8.05;5.82;;;;;14.70;102497.00;;;;5029826;28;20239;-82
2021/11/06 08:06:21;;;;;;;8.55;5.78;;;;;14.80;102497.00;;;;5041531;28;20207;-82
2021/11/06 08:08:48;;;;;;;9.38;5.45;;;;;14.80;102501.00;;;;5049191;28;20204;-81
2021/11/06 08:11:15;;;;;;;8.18;5.55;;;;;14.90;102508.00;;;;5049697;28;20554;-82
2021/11/06 08:13:42;;;;;;;9.05;5.80;;;;;14.90;102512.00;;;;5042260;28;20229;-83
2021/11/06 08:16:10;;;;;;;9.13;5.47;;;;;14.90;102499.00;;;;5029234;28;20200;-82
2021/11/06 08:18:37;;;;;;;10.77;5.75;;;;;14.90;102500.00;;;;5028990;28;20667;-81
2021/11/06 08:21:04;;;;;;;9.70;5.93;;;;;14.90;102511.00;;;;5028725;28;20232;-82
2021/11/06 08:23:33;;;;;;;11.82;6.35;;;;;14.90;102497.00;;;;5029489;28;20200;-82
2021/11/06 08:26:00;;;;;;;10.50;5.53;;;;;15.00;102496.00;;;;5028904;28;20204;-82
2021/11/06 08:28:27;;;;;;;10.35;4.97;;;;;15.00;102488.00;;;;5028697;28;20204;-82
2021/11/06 08:30:54;;;;;;;8.25;5.13;;;;;15.00;102495.00;;;;5030067;28;20722;-82
2021/11/06 08:33:22;;;;;;;8.07;5.18;;;;;15.00;102493.00;;;;5028236;28;20674;-82
2021/11/06 08:35:49;;;;;;;10.75;5.70;;;;;15.00;102490.00;;;;5029068;28;20246;-82
2021/11/06 08:38:17;;;;;;;8.30;4.90;;;;;15.00;102492.00;;;;5027876;28;20200;-83
2021/11/06 08:40:45;;;;;;;7.88;5.25;;;;;15.00;102497.00;;;;5029234;28;20224;-82
2021/11/06 08:43:13;;;;;;;6.60;4.80;;;;;15.10;102502.00;;;;5028672;28;20219;-82
2021/11/06 08:45:40;;;;;;;8.55;5.30;;;;;15.10;102499.00;;;;5030704;28;20196;-82
2021/11/06 08:48:08;;;;;;;11.13;4.90;;;;;15.10;102504.00;;;;5038264;28;20587;-82
2021/11/06 08:50:35;;;;;;;7.50;5.47;;;;;15.20;102498.00;;;;5028464;28;20235;-82
2021/11/06 08:53:03;;;;;;;9.40;5.05;;;;;15.20;102502.00;;;;5028231;28;20211;-82
2021/11/06 08:55:30;;;;;;;10.35;4.68;;;;;15.20;102493.00;;;;5028612;28;20204;-82
2021/11/06 08:57:59;;;;;;;8.23;5.47;;;;;15.20;102495.00;;;;5029123;28;20200;-81
2021/11/06 09:00:32;;;;;;;6.38;4.53;;;;;15.30;102479.00;;;;5028501;28;20251;-82
2021/11/06 09:03:00;;;;;;;8.32;4.85;;;;;15.30;102492.00;;;;5028496;28;20200;-82
2021/11/06 09:05:28;;;;;;;6.50;4.68;;;;;15.40;102493.00;;;;5036414;28;20204;-82
2021/11/06 09:07:56;;;;;;;4.95;4.00;;;;;15.40;102489.00;;;;5031983;28;20295;-81
2021/11/06 09:10:23;;;;;;;7.18;4.82;;;;;15.50;102487.00;;;;5028837;28;20204;-82
2021/11/06 09:12:51;;;;;;;8.73;4.68;;;;;15.50;102488.00;;;;5028551;28;20204;-81
2021/11/06 09:15:20;;;;;;;7.93;4.65;;;;;15.50;102484.00;;;;5027849;28;20541;-82
2021/11/06 09:17:50;;;;;;;5.65;4.15;;;;;15.60;102484.00;;;;5027893;28;20204;-82
2021/11/06 09:20:18;;;;;;;6.68;3.97;;;;;15.70;102481.00;;;;5028057;28;20224;-82
2021/11/06 09:22:45;;;;;;;5.90;4.07;;;;;15.70;102486.00;;;;5029087;28;20208;-82
2021/11/06 09:25:14;;;;;;;6.82;4.07;;;;;15.80;102496.00;;;;5027507;28;20273;-82
2021/11/06 09:27:42;;;;;;;6.85;4.32;;;;;15.80;102477.00;;;;5027928;28;20554;-83
2021/11/06 09:30:11;;;;;;;7.85;4.60;;;;;15.90;102490.00;;;;5028164;28;20196;-82
2021/11/06 09:32:40;;;;;;;8.10;4.38;;;;;15.90;102483.00;;;;5028291;28;20215;-83
2021/11/06 09:35:08;;;;;;;5.78;3.22;;;;;16.00;102482.00;;;;5027232;28;20203;-82
2021/11/06 09:37:36;;;;;;;6.60;4.13;;;;;16.00;102477.00;;;;5028290;28;20212;-82
2021/11/06 09:40:07;;;;;;;5.32;4.15;;;;;16.00;102476.00;;;;5028566;28;20235;-81
2021/11/06 09:42:35;;;;;;;5.32;3.53;;;;;16.10;102477.00;;;;5027885;28;20266;-82
2021/11/06 09:45:05;;;;;;;5.43;4.00;;;;;16.10;102476.00;;;;5028339;28;20201;-82
2021/11/06 09:47:33;;;;;;;5.45;3.88;;;;;16.20;102482.00;;;;5030857;28;20208;-83
2021/11/06 09:50:01;;;;;;;8.52;4.35;;;;;16.20;102474.00;;;;5028128;28;20243;-82
2021/11/06 09:52:29;;;;;;;7.05;4.30;;;;;16.30;102478.00;;;;5028426;28;20262;-82
2021/11/06 09:54:56;;;;;;;5.35;3.38;;;;;16.30;102478.00;;;;5028979;28;20204;-83
2021/11/06 09:57:23;;;;;;;6.28;3.70;;;;;16.40;102476.00;;;;5028035;28;20436;-81
2021/11/06 09:59:50;;;;;;;6.78;3.83;;;;;16.40;102476.00;;;;5028571;28;20224;-82
2021/11/06 10:02:18;;;;;;;7.47;3.97;;;;;16.50;102470.00;;;;5027994;28;20541;-82
2021/11/06 10:04:45;;;;;;;6.30;3.58;;;;;16.50;102477.00;;;;5028700;28;20201;-82
2021/11/06 10:07:19;;;;;;;6.82;3.92;;;;;16.50;102475.00;;;;5028411;28;20188;-82
2021/11/06 10:10:01;;;;;;;7.53;3.63;;;;;16.50;102470.00;;;;5028061;28;20188;-83
2021/11/06 10:12:43;;;;;;;6.00;4.07;;;;;16.60;102471.00;;;;5029107;28;20208;-82
2021/11/06 10:15:12;;;;;;;7.13;4.03;;;;;16.70;102463.00;;;;5031179;28;20220;-83
2021/11/06 10:17:39;;;;;;;7.43;4.32;;;;;16.70;102470.00;;;;5044240;28;20203;-83
2021/11/06 10:20:24;;;;;;;4.93;3.17;;;;;16.60;102476.00;;;;5031913;28;20223;-83
2021/11/06 10:22:53;;;;;;;9.05;3.83;;;;;16.70;102456.00;;;;5031766;28;20227;-82
2021/11/06 10:25:22;;;;;;;6.82;3.83;;;;;16.80;102465.00;;;;5030982;28;20578;-83
2021/11/06 10:27:58;;;;;;;6.80;3.28;;;;;16.70;102467.00;;;;5032311;28;20208;-82
2021/11/06 10:30:28;;;;;;;5.43;4.20;;;;;16.80;102463.00;;;;5031831;28;20211;-82
2021/11/06 10:33:08;;;;;;;5.22;3.15;;;;;16.80;102462.00;;;;5031724;28;20199;-83
2021/11/06 10:35:38;;;;;;;7.22;3.80;;;;;16.90;102455.00;;;;5031317;28;20196;-81
2021/11/06 10:38:09;;;;;;;5.78;3.55;;;;;16.80;102454.00;;;;5031243;28;20197;-82
2021/11/06 10:40:41;;;;;;;9.20;2.95;;;;;16.80;102455.00;;;;5031683;28;20311;-82
2021/11/06 10:43:12;;;;;;;6.40;3.30;;;;;16.80;102448.00;;;;5031203;28;20216;-82
2021/11/06 10:45:46;;;;;;;5.50;3.28;;;;;16.80;102442.00;;;;5034117;28;20287;-82
2021/11/06 10:48:16;;;;;;;5.55;3.33;;;;;16.90;102445.00;;;;5032191;28;20299;-82
2021/11/06 10:51:02;;;;;;;6.72;3.35;;;;;16.80;102439.00;;;;5030881;28;20232;-82
2021/11/06 10:53:52;;;;;;;4.55;2.95;;;;;16.80;102441.00;;;;5031552;28;20200;-82
2021/11/06 10:56:23;;;;;;;5.15;2.97;;;;;16.90;102439.00;;;;5027101;28;20203;-83
2021/11/06 10:58:52;;;;;;;5.25;2.67;;;;;16.90;102436.00;;;;5031496;28;20696;-83
2021/11/06 11:01:23;;;;;;;4.97;3.47;;;;;16.90;102442.00;;;;5030510;28;20224;-82
2021/11/06 11:03:56;;;;;;;4.18;2.72;;;;;16.90;102433.00;;;;5031907;28;20212;-82
2021/11/06 11:06:28;;;;;;;5.18;3.20;;;;;17.00;102434.00;;;;5031319;28;20204;-82
2021/11/06 11:08:58;;;;;;;4.28;2.80;;;;;17.00;102415.00;;;;5031911;28;20212;-83
2021/11/06 11:11:29;;;;;;;9.90;2.95;;;;;17.00;102430.00;;;;5031299;28;20531;-82
2021/11/06 11:14:00;;;;;;;5.95;2.65;;;;;17.00;102423.00;;;;5030920;28;20223;-83
2021/11/06 11:16:27;;;;;;;3.85;2.65;;;;;17.10;102418.00;;;;5030728;28;20286;-82
2021/11/06 11:18:57;;;;;;;4.57;2.63;;;;;17.10;102427.00;;;;5031286;28;20212;-82
2021/11/06 11:21:26;;;;;;;12.25;2.95;;;;;17.10;102413.00;;;;5031258;28;20258;-82
2021/11/06 11:23:57;;;;;;;5.55;3.05;;;;;17.20;102400.00;;;;5031190;28;20287;-82
2021/11/06 11:26:27;;;;;;;6.95;3.03;;;;;17.20;102408.00;;;;5041354;28;20211;-82
2021/11/06 11:28:56;;;;;;;6.85;3.08;;;;;17.30;102398.00;;;;5030889;28;20199;-83
2021/11/06 11:31:25;;;;;;;6.35;2.45;;;;;17.40;102401.00;;;;5030658;28;20582;-82
2021/11/06 11:33:52;;;;;;;6.45;3.45;;;;;17.40;102393.00;;;;5031287;28;20196;-82
2021/11/06 11:36:23;;;;;;;5.13;2.92;;;;;17.50;102389.00;;;;5030643;28;20565;-82
2021/11/06 11:38:50;;;;;;;4.38;2.70;;;;;17.50;102385.00;;;;5031889;28;20204;-83
2021/11/06 11:41:57;;;;;;;4.85;2.90;;;;;17.50;102392.00;;;;5029736;28;20235;-83
2021/11/06 11:45:10;;;;;;;3.28;2.72;;;;;17.50;102386.00;;;;5030500;28;20258;-82
2021/11/06 11:47:42;;;;;;;5.07;2.30;;;;;17.60;102377.00;;;;5034205;28;20292;-82
2021/11/06 11:50:15;;;;;;;4.07;2.40;;;;;17.60;102373.00;;;;5029718;28;20224;-81
2021/11/06 11:52:49;;;;;;;5.25;2.95;;;;;17.70;102370.00;;;;5030088;28;20710;-82
2021/11/06 11:55:19;;;;;;;5.32;2.50;;;;;17.70;102354.00;;;;5040566;28;20207;-82
2021/11/06 11:57:52;;;;;;;5.43;2.70;;;;;17.70;102352.00;;;;5050337;28;20644;-82
2021/11/06 12:00:38;;;;;;;6.75;3.33;;;;;17.60;102360.00;;;;5049232;28;20206;-82
2021/11/06 12:03:07;;;;;;;8.43;3.22;;;;;17.70;102350.00;;;;5049584;28;20676;-82
2021/11/06 12:05:39;;;;;;;5.13;2.95;;;;;17.70;102344.00;;;;5049893;28;20211;-81
2021/11/06 12:08:26;;;;;;;4.68;2.75;;;;;17.60;102338.00;;;;5049223;28;20253;-82
2021/11/06 12:10:58;;;;;;;4.07;2.30;;;;;17.70;102337.00;;;;5049745;28;20211;-81
2021/11/06 12:13:36;;;;;;;6.93;2.72;;;;;17.70;102332.00;;;;5030376;28;20200;-82